Latest Weather Observations for Loxton

IDS60801

Issued at 1:01 pm CST Tuesday 27 September 2016 (issued every 30 minutes, with the page automatically refreshed every 10 minutes)

About weather observations | Map of weather stations | Latest weather observations for SA | Other Formats
Station Details ID: 024024 Name: LOXTON RESEARCH CENTRE Lat: -34.44 Lon: 140.60 Height: 30.1 m
Data from the previous 72 hours. | See also: Recent months at Loxton
Date/Time
CST
Temp
°C
App
Temp
°C
Dew
Point
°C
Rel
Hum
%
Delta-T
°C
Wind Press
QNH
hPa
Press
MSL
hPa
Rain since
9am
mm
Dir  Spd
km/h
Gust
km/h
Spd
kts
Gust
kts
27/01:00pm 17.3 13.7 2.9 38 6.6 WSW 11 20 6 11 1015.1 1015.1 0.0
27/12:30pm 16.8 12.3 2.1 37 6.6 WNW 15 20 8 11 1015.5 1015.5 0.0
27/12:00pm 16.9 12.0 2.3 37 6.6 WNW 17 24 9 13 1015.7 1015.7 0.0
27/11:30am 16.4 12.2 1.4 36 6.6 WSW 13 22 7 12 1016.2 1016.2 0.0
27/11:00am 15.2 10.3 2.1 41 5.8 W 17 20 9 11 1016.6 1016.6 0.0
27/10:30am 15.4 11.1 3.3 44 5.5 W 15 24 8 13 1016.8 1016.8 0.0
27/10:00am 14.4 9.7 3.0 46 5.1 WSW 17 20 9 11 1016.9 1016.9 0.0
27/09:30am 13.8 9.3 2.4 46 5.0 W 15 26 8 14 1017.2 1017.2 0.0
27/09:00am 13.0 9.1 3.6 53 4.2 WSW 13 19 7 10 1017.1 1017.1 0.0
27/08:30am 12.0 8.4 5.0 62 3.2 W 13 19 7 10 1016.9 1016.9 0.0
27/08:00am 10.6 7.5 5.6 71 2.3 WNW 11 15 6 8 1016.7 1016.7 0.0
27/07:30am 9.0 6.3 5.7 80 1.5 NW 9 13 5 7 1016.6 1016.6 0.0
27/07:00am 7.5 4.7 5.2 85 1.0 WNW 9 13 5 7 1016.6 1016.6 0.0
27/06:30am 6.4 3.5 4.8 89 0.7 WNW 9 11 5 6 1016.2 1016.2 0.0
27/06:00am 5.5 4.3 4.6 94 0.4 CALM 0 0 0 0 1015.7 1015.7 0.0
27/05:30am 5.4 4.2 4.7 95 0.3 CALM 0 0 0 0 1015.1 1015.1 0.0
27/05:00am 5.7 4.5 4.5 92 0.5 CALM 0 0 0 0 1014.8 1014.8 0.0
27/04:30am 5.6 4.4 4.7 94 0.4 CALM 0 0 0 0 1014.6 1014.6 0.0
27/04:00am 6.2 3.7 4.6 89 0.7 NW 7 11 4 6 1014.3 1014.3 0.0
27/03:30am 6.7 4.2 4.9 88 0.8 WNW 7 9 4 5 1014.2 1014.1 0.0
27/03:00am 7.2 3.9 4.7 84 1.1 WNW 11 17 6 9 1014.1 1014.0 0.0
27/02:30am 7.1 4.6 4.8 85 1.0 W 7 11 4 6 1014.0 1013.9 0.0
27/02:00am 7.8 4.6 4.9 82 1.3 WNW 11 15 6 8 1014.2 1014.1 0.0
27/01:30am 8.1 4.8 4.7 79 1.5 W 11 17 6 9 1014.5 1014.5 0.0
27/01:00am 8.2 4.9 4.8 79 1.5 W 11 19 6 10 1014.3 1014.3 0.0
27/12:30am 8.4 5.1 4.8 78 1.6 W 11 17 6 9 1014.6 1014.6 0.0
27/12:00am 8.3 5.4 4.7 78 1.6 WNW 9 11 5 6 1014.7 1014.7 0.0
 
Date/Time
CST
Temp
°C
App
Temp
°C
Dew
Point
°C
Rel
Hum
%
Delta-T
°C
Wind Press
QNH
hPa
Press
MSL
hPa
Rain since
9am
mm
Dir  Spd
km/h
Gust
km/h
Spd
kts
Gust
kts
26/11:30pm 9.0 5.7 4.7 74 1.9 W 11 19 6 10 1014.6 1014.6 0.0
26/11:00pm 9.8 6.0 4.1 67 2.5 W 13 20 7 11 1014.6 1014.6 0.0
26/10:30pm 9.9 6.1 4.0 67 2.6 W 13 20 7 11 1014.5 1014.5 0.0
26/10:00pm 10.4 6.5 3.6 63 3.0 W 13 17 7 9 1014.6 1014.6 0.0
26/09:30pm 11.3 6.2 2.8 56 3.7 W 19 28 10 15 1014.3 1014.3 0.0
26/09:00pm 11.3 6.5 2.5 54 3.8 W 17 26 9 14 1014.1 1014.0 0.0
26/08:30pm 11.5 7.3 1.9 51 4.1 WNW 13 19 7 10 1014.0 1013.9 0.0
26/08:00pm 12.4 7.4 1.3 46 4.7 WSW 17 26 9 14 1013.5 1013.4 0.0
26/07:30pm 13.0 7.5 0.3 41 5.3 WSW 19 24 10 13 1013.1 1013.0 0.0
26/07:00pm 14.1 8.6 2.0 44 5.3 W 20 30 11 16 1012.8 1012.7 0.0
26/06:30pm 14.9 9.2 2.9 44 5.4 WSW 22 33 12 18 1012.1 1012.1 0.0
26/06:00pm 15.8 10.8 4.8 48 5.2 WSW 20 37 11 20 1011.5 1011.5 0.0
26/05:30pm 17.1 11.0 5.0 44 5.8 WSW 26 41 14 22 1010.9 1010.9 0.0
26/05:00pm 18.6 11.3 4.4 39 6.8 W 32 46 17 25 1010.3 1010.3 0.0
26/04:30pm 19.8 13.2 4.2 35 7.5 W 28 46 15 25 1009.8 1009.8 0.0
26/04:23pm 19.9 13.2 3.5 34 7.8 W 28 46 15 25 1009.6 1009.6 0.0
26/04:00pm 20.8 13.6 2.8 30 8.5 WSW 30 41 16 22 1009.3 1009.3 0.0
26/03:30pm 19.7 14.9 2.5 32 8.0 SW 17 26 9 14 1009.3 1009.3 0.0
26/03:00pm 19.8 14.4 1.3 29 8.4 WSW 19 28 10 15 1009.3 1009.3 0.0
26/02:30pm 20.8 14.3 0.3 25 9.2 W 24 41 13 22 1009.5 1009.5 0.0
26/02:00pm 21.0 14.2 1.1 26 9.1 WNW 26 35 14 19 1009.7 1009.7 0.0
26/01:30pm 20.8 15.3 0.7 26 9.1 W 19 32 10 17 1010.2 1010.2 0.0
26/01:00pm 20.5 13.0 -1.1 23 9.4 WNW 28 37 15 20 1010.7 1010.7 0.0
26/12:30pm 19.6 13.6 -1.4 24 9.0 WNW 20 33 11 18 1011.3 1011.3 0.0
26/12:00pm 19.4 13.5 -0.6 26 8.7 NW 20 28 11 15 1011.8 1011.8 0.0
26/11:30am 18.9 13.1 -0.1 28 8.3 NNW 20 32 11 17 1012.0 1012.0 0.0
26/11:00am 18.4 12.9 0.5 30 7.9 NNW 19 32 10 17 1012.6 1012.6 0.0
26/10:30am 18.2 12.5 0.8 31 7.7 NW 20 32 11 17 1013.0 1012.9 0.0
26/10:00am 17.2 12.4 2.4 37 6.7 NNW 17 22 9 12 1013.2 1013.1 0.0
26/09:30am 17.0 12.0 3.7 41 6.2 NNW 19 26 10 14 1013.7 1013.6 0.0
26/09:00am 15.4 11.3 4.5 48 5.1 N 15 24 8 13 1013.7 1013.6 0.0
26/08:30am 14.1 9.9 3.8 50 4.7 NNW 15 22 8 12 1014.0 1013.9 0.0
26/08:00am 13.0 8.7 3.4 52 4.3 N 15 24 8 13 1013.9 1013.8 0.0
26/07:30am 11.5 8.0 3.3 57 3.6 N 11 17 6 9 1013.9 1013.8 0.0
26/07:00am 9.4 7.9 4.9 73 2.0 N 2 13 1 7 1013.8 1013.7 0.0
26/06:30am 6.9 5.9 5.6 91 0.6 CALM 0 0 0 0 1013.9 1013.8 0.0
26/06:00am 5.5 4.3 4.8 95 0.3 CALM 0 0 0 0 1013.6 1013.5 0.0
26/05:30am 5.1 3.9 4.4 95 0.3 CALM 0 0 0 0 1013.4 1013.3 0.0
26/05:00am 6.0 4.9 5.1 94 0.4 CALM 0 0 0 0 1013.5 1013.4 0.0
26/04:30am 5.7 4.6 5.2 97 0.2 CALM 0 0 0 0 1013.6 1013.5 0.0
26/04:00am 7.0 6.1 6.1 94 0.4 CALM 0 0 0 0 1013.7 1013.6 0.0
26/03:30am 7.7 7.0 7.1 96 0.3 CALM 0 0 0 0 1013.8 1013.7 0.0
26/03:00am 8.2 7.5 6.9 91 0.6 CALM 0 0 0 0 1014.1 1014.0 0.0
26/02:30am 8.4 7.7 7.1 91 0.6 CALM 0 0 0 0 1014.5 1014.5 0.0
26/02:00am 9.7 9.0 6.9 83 1.3 CALM 0 0 0 0 1014.9 1014.9 0.0
26/01:30am 9.9 9.4 7.8 87 1.0 CALM 0 0 0 0 1015.3 1015.3 0.0
26/01:00am 9.9 9.3 7.2 83 1.3 CALM 0 0 0 0 1015.5 1015.5 0.0
26/12:30am 9.6 9.0 7.3 85 1.1 CALM 0 0 0 0 1015.6 1015.6 0.0
26/12:00am 9.0 8.3 7.1 88 0.9 CALM 0 0 0 0 1015.6 1015.6 0.0
 
Date/Time
CST
Temp
°C
App
Temp
°C
Dew
Point
°C
Rel
Hum
%
Delta-T
°C
Wind Press
QNH
hPa
Press
MSL
hPa
Rain since
9am
mm
Dir  Spd
km/h
Gust
km/h
Spd
kts
Gust
kts
25/11:30pm 9.1 8.5 7.4 89 0.8 CALM 0 0 0 0 1015.8 1015.8 0.0
25/11:00pm 10.4 9.9 7.9 84 1.2 CALM 0 0 0 0 1015.7 1015.7 0.0
25/10:30pm 12.3 11.9 8.2 76 2.0 CALM 0 0 0 0 1015.9 1015.9 0.0
25/10:00pm 12.1 11.8 8.5 78 1.8 CALM 0 0 0 0 1016.1 1016.1 0.0
25/09:30pm 11.9 11.6 8.5 80 1.7 CALM 0 0 0 0 1016.0 1016.0 0.0
25/09:00pm 11.8 11.6 9.0 83 1.4 CALM 0 0 0 0 1015.8 1015.8 0.0
25/08:30pm 12.3 11.4 7.8 74 2.2 WSW 2 6 1 3 1015.9 1015.9 0.0
25/08:00pm 12.0 11.7 8.8 81 1.6 CALM 0 0 0 0 1015.4 1015.4 0.0
25/07:30pm 12.3 12.1 8.9 80 1.7 CALM 0 0 0 0 1015.2 1015.2 0.0
25/07:00pm 12.2 11.7 7.7 74 2.2 CALM 0 0 0 0 1014.8 1014.8 0.0
25/06:30pm 14.2 12.0 5.5 56 4.1 W 6 9 3 5 1014.3 1014.3 0.0
25/06:00pm 14.6 12.1 4.5 50 4.7 WSW 7 13 4 7 1014.2 1014.1 0.0
25/05:30pm 15.2 11.7 3.6 46 5.3 WSW 11 15 6 8 1014.1 1014.0 0.0
25/05:00pm 15.6 12.1 3.6 44 5.5 W 11 19 6 10 1013.9 1013.8 0.0
25/04:30pm 15.8 10.6 2.7 41 5.9 W 19 24 10 13 1013.6 1013.5 0.0
25/04:00pm 15.8 11.7 2.1 39 6.1 W 13 19 7 10 1013.6 1013.5 0.0
25/03:30pm 16.4 11.9 2.4 39 6.3 W 15 20 8 11 1013.5 1013.4 0.0
25/03:00pm 16.5 13.5 2.0 37 6.5 WSW 7 15 4 8 1013.6 1013.5 0.0
25/02:30pm 16.3 12.5 1.9 38 6.4 SW 11 17 6 9 1013.6 1013.5 0.0
25/02:00pm 16.5 12.3 1.6 36 6.6 WNW 13 20 7 11 1014.0 1013.9 0.0
25/01:30pm 16.2 12.4 1.8 38 6.4 W 11 19 6 10 1014.1 1014.0 0.0
25/01:00pm 15.6 11.9 2.4 41 5.9 W 11 17 6 9 1014.4 1014.4 0.0
25/12:30pm 15.1 12.0 3.8 46 5.2 WSW 9 20 5 11 1014.8 1014.8 0.0
25/12:00pm 14.9 10.9 2.6 43 5.5 WSW 13 20 7 11 1015.3 1015.3 0.0
25/11:30am 14.6 10.6 2.7 44 5.3 WSW 13 20 7 11 1015.6 1015.6 0.0
25/11:00am 15.0 11.3 4.5 49 4.9 WSW 13 24 7 13 1016.0 1016.0 0.0
25/10:30am 13.9 9.8 4.6 53 4.3 WSW 15 26 8 14 1016.4 1016.4 0.0
25/10:00am 13.2 8.5 5.0 57 3.8 SW 19 26 10 14 1016.6 1016.6 0.0
25/09:30am 12.5 8.0 5.9 64 3.1 WSW 19 26 10 14 1016.6 1016.6 0.0
25/09:00am 12.1 7.7 6.4 68 2.7 W 19 26 10 14 1016.5 1016.5 5.6
25/08:30am 11.2 7.0 5.8 69 2.5 W 17 22 9 12 1016.4 1016.4 5.6
25/08:00am 10.0 7.0 6.1 77 1.8 W 11 17 6 9 1016.1 1016.1 5.6
25/07:30am 8.2 5.8 5.3 82 1.3 WNW 7 11 4 6 1015.5 1015.5 5.6
25/07:00am 7.0 4.1 4.7 85 1.0 W 9 11 5 6 1015.3 1015.3 5.6
25/06:30am 5.8 3.2 4.4 91 0.6 WNW 7 13 4 7 1014.8 1014.8 5.6
25/06:00am 5.7 3.3 4.3 91 0.6 W 6 11 3 6 1014.3 1014.3 5.6
25/05:30am 6.7 4.1 4.1 83 1.1 WSW 7 11 4 6 1014.2 1014.1 5.4
25/05:00am 6.6 4.1 4.5 86 0.9 W 7 11 4 6 1013.9 1013.8 5.4
25/04:30am 6.7 3.4 4.6 86 0.9 W 11 17 6 9 1013.4 1013.3 5.4
25/04:00am 6.7 3.4 4.4 85 1.0 W 11 15 6 8 1012.8 1012.7 5.4
25/03:30am 6.7 3.9 5.1 89 0.7 W 9 13 5 7 1012.6 1012.6 5.4
25/03:00am 7.1 4.0 5.5 89 0.7 W 11 13 6 7 1012.4 1012.4 5.4
25/02:30am 7.7 4.6 5.5 86 1.0 WSW 11 13 6 7 1012.3 1012.3 5.4
25/02:00am 8.1 4.7 6.1 87 0.9 SW 13 17 7 9 1012.4 1012.4 5.4
25/01:30am 8.6 5.3 6.4 86 1.0 WSW 13 20 7 11 1012.4 1012.4 5.4
25/01:00am 8.8 5.2 6.9 88 0.9 SW 15 20 8 11 1012.2 1012.2 5.4
25/12:30am 9.0 6.0 7.5 90 0.7 SW 13 19 7 10 1012.0 1012.0 5.4
25/12:00am 9.3 5.6 7.8 90 0.7 SW 17 24 9 13 1011.7 1011.7 5.4
 
Date/Time
CST
Temp
°C
App
Temp
°C
Dew
Point
°C
Rel
Hum
%
Delta-T
°C
Wind Press
QNH
hPa
Press
MSL
hPa
Rain since
9am
mm
Dir  Spd
km/h
Gust
km/h
Spd
kts
Gust
kts
24/11:30pm 9.6 5.9 7.9 89 0.8 SW 17 20 9 11 1011.6 1011.6 5.4
24/11:00pm 9.5 6.3 8.3 92 0.6 SW 15 20 8 11 1011.5 1011.5 5.4
24/10:30pm 9.2 6.7 8.2 93 0.5 SW 11 15 6 8 1011.3 1011.3 5.4
24/10:00pm 9.6 7.6 8.6 93 0.5 SW 9 15 5 8 1011.1 1011.1 5.4
24/09:30pm 10.1 7.4 9.1 93 0.5 SW 13 15 7 8 1010.9 1010.9 5.4
24/09:00pm 10.9 8.0 9.5 91 0.7 SW 15 24 8 13 1010.7 1010.7 5.4
24/08:30pm 11.6 10.1 10.6 94 0.5 SW 9 17 5 9 1010.4 1010.4 5.4
24/08:00pm 11.4 10.3 10.6 95 0.4 SW 7 11 4 6 1009.9 1009.9 5.4
24/07:30pm 11.9 10.5 10.9 94 0.5 SW 9 13 5 7 1009.2 1009.2 5.4
24/07:00pm 12.1 9.8 10.4 89 0.9 SSW 13 20 7 11 1008.7 1008.7 5.4
24/06:30pm 12.3 9.5 11.2 93 0.6 WSW 17 24 9 13 1008.3 1008.3 5.2
24/06:00pm 13.8 12.6 12.7 93 0.6 WNW 11 22 6 12 1007.5 1007.5 2.6
24/05:30pm 14.0 13.4 12.3 89 0.9 N 7 11 4 6 1006.5 1006.5 1.8
24/05:00pm 14.2 12.9 12.4 89 1.0 N 11 15 6 8 1006.3 1006.3 1.8
24/04:30pm 14.3 13.2 12.1 87 1.2 N 9 13 5 7 1006.2 1006.2 1.8
24/04:00pm 14.7 12.6 11.1 79 1.9 N 13 20 7 11 1006.1 1006.1 1.4
24/03:30pm 15.3 12.0 10.8 74 2.4 N 19 28 10 15 1005.8 1005.8 1.4
24/03:00pm 16.3 14.7 11.5 73 2.6 N 11 19 6 10 1005.8 1005.8 1.4
24/02:30pm 15.9 14.0 11.7 76 2.3 NNW 13 19 7 10 1006.1 1006.1 1.4
24/02:00pm 15.9 14.7 11.7 76 2.3 NNW 9 15 5 8 1006.1 1006.1 1.4
24/01:30pm 16.2 14.2 11.4 73 2.6 NNW 13 19 7 10 1006.1 1006.1 1.4

Other Formats:

Comma delimited format used in spreadsheet applications
http://www.bom.gov.au/fwo/IDS60801/IDS60801.94682.axf

JavaScript Object Notation format (JSON) in row-major order
http://www.bom.gov.au/fwo/IDS60801/IDS60801.94682.json